sensor_id;sensor_type;location;lat;lon;timestamp;P1;durP1;ratioP1;P2;durP2;ratioP2
77775;SDS011;73554;43.328;6.668;2024-02-26T00:01:59;5.23;;;1.53;;
77775;SDS011;73554;43.328;6.668;2024-02-26T00:04:25;8.07;;;1.17;;
77775;SDS011;73554;43.328;6.668;2024-02-26T00:06:50;3.03;;;0.67;;
77775;SDS011;73554;43.328;6.668;2024-02-26T00:09:16;4.68;;;1.23;;
77775;SDS011;73554;43.328;6.668;2024-02-26T00:11:41;11.80;;;1.73;;
77775;SDS011;73554;43.328;6.668;2024-02-26T00:14:06;3.97;;;0.80;;
77775;SDS011;73554;43.328;6.668;2024-02-26T00:16:32;5.97;;;1.10;;
77775;SDS011;73554;43.328;6.668;2024-02-26T00:18:57;5.63;;;1.30;;
77775;SDS011;73554;43.328;6.668;2024-02-26T00:21:22;12.03;;;1.73;;
77775;SDS011;73554;43.328;6.668;2024-02-26T00:23:49;8.73;;;1.45;;
77775;SDS011;73554;43.328;6.668;2024-02-26T00:26:14;10.27;;;1.80;;
77775;SDS011;73554;43.328;6.668;2024-02-26T00:28:40;10.32;;;1.42;;
77775;SDS011;73554;43.328;6.668;2024-02-26T00:31:05;9.00;;;2.07;;
77775;SDS011;73554;43.328;6.668;2024-02-26T00:33:31;3.07;;;1.27;;
77775;SDS011;73554;43.328;6.668;2024-02-26T00:35:56;10.00;;;1.57;;
77775;SDS011;73554;43.328;6.668;2024-02-26T00:38:21;9.13;;;2.10;;
77775;SDS011;73554;43.328;6.668;2024-02-26T00:40:46;11.00;;;1.83;;
77775;SDS011;73554;43.328;6.668;2024-02-26T00:43:12;4.57;;;0.93;;
77775;SDS011;73554;43.328;6.668;2024-02-26T00:45:37;4.73;;;0.90;;
77775;SDS011;73554;43.328;6.668;2024-02-26T00:48:02;1.80;;;0.63;;
77775;SDS011;73554;43.328;6.668;2024-02-26T00:50:36;5.28;;;1.50;;
77775;SDS011;73554;43.328;6.668;2024-02-26T00:53:01;8.10;;;1.80;;
77775;SDS011;73554;43.328;6.668;2024-02-26T00:55:27;5.27;;;1.10;;
77775;SDS011;73554;43.328;6.668;2024-02-26T00:57:52;2.30;;;0.63;;
77775;SDS011;73554;43.328;6.668;2024-02-26T01:00:17;1.90;;;0.60;;
77775;SDS011;73554;43.328;6.668;2024-02-26T01:02:43;1.27;;;0.63;;
77775;SDS011;73554;43.328;6.668;2024-02-26T01:05:11;3.92;;;0.90;;
77775;SDS011;73554;43.328;6.668;2024-02-26T01:07:37;6.40;;;1.30;;
77775;SDS011;73554;43.328;6.668;2024-02-26T01:10:02;8.98;;;1.70;;
77775;SDS011;73554;43.328;6.668;2024-02-26T01:12:28;5.55;;;1.00;;
77775;SDS011;73554;43.328;6.668;2024-02-26T01:14:53;3.17;;;1.00;;
77775;SDS011;73554;43.328;6.668;2024-02-26T01:17:18;11.83;;;3.30;;
77775;SDS011;73554;43.328;6.668;2024-02-26T01:19:44;3.93;;;0.83;;
77775;SDS011;73554;43.328;6.668;2024-02-26T01:22:09;2.13;;;0.90;;
77775;SDS011;73554;43.328;6.668;2024-02-26T01:24:34;2.70;;;0.83;;
77775;SDS011;73554;43.328;6.668;2024-02-26T01:27:02;2.87;;;0.63;;
77775;SDS011;73554;43.328;6.668;2024-02-26T01:29:27;5.20;;;1.08;;
77775;SDS011;73554;43.328;6.668;2024-02-26T01:31:53;3.00;;;0.70;;
77775;SDS011;73554;43.328;6.668;2024-02-26T01:34:18;4.37;;;1.20;;
77775;SDS011;73554;43.328;6.668;2024-02-26T01:36:43;13.27;;;3.27;;
77775;SDS011;73554;43.328;6.668;2024-02-26T01:39:09;24.23;;;3.70;;
77775;SDS011;73554;43.328;6.668;2024-02-26T01:41:37;16.77;;;3.72;;
77775;SDS011;73554;43.328;6.668;2024-02-26T01:44:05;20.02;;;3.72;;
77775;SDS011;73554;43.328;6.668;2024-02-26T01:46:30;14.25;;;3.63;;
77775;SDS011;73554;43.328;6.668;2024-02-26T01:48:57;17.33;;;3.30;;
77775;SDS011;73554;43.328;6.668;2024-02-26T01:51:22;15.60;;;3.47;;
77775;SDS011;73554;43.328;6.668;2024-02-26T01:53:48;29.37;;;4.13;;
77775;SDS011;73554;43.328;6.668;2024-02-26T01:56:13;19.80;;;4.32;;
77775;SDS011;73554;43.328;6.668;2024-02-26T01:58:39;19.10;;;3.80;;
77775;SDS011;73554;43.328;6.668;2024-02-26T02:01:05;21.35;;;4.10;;
77775;SDS011;73554;43.328;6.668;2024-02-26T02:03:31;27.07;;;5.73;;
77775;SDS011;73554;43.328;6.668;2024-02-26T02:05:56;29.60;;;4.37;;
77775;SDS011;73554;43.328;6.668;2024-02-26T02:08:21;25.25;;;4.18;;
77775;SDS011;73554;43.328;6.668;2024-02-26T02:10:48;21.58;;;4.18;;
77775;SDS011;73554;43.328;6.668;2024-02-26T02:13:14;29.45;;;4.88;;
77775;SDS011;73554;43.328;6.668;2024-02-26T02:15:42;30.63;;;4.53;;
77775;SDS011;73554;43.328;6.668;2024-02-26T02:18:07;29.97;;;5.53;;
77775;SDS011;73554;43.328;6.668;2024-02-26T02:20:33;37.13;;;5.47;;
77775;SDS011;73554;43.328;6.668;2024-02-26T02:23:02;31.83;;;5.47;;
77775;SDS011;73554;43.328;6.668;2024-02-26T02:25:27;23.27;;;5.13;;
77775;SDS011;73554;43.328;6.668;2024-02-26T02:27:55;34.53;;;6.67;;
77775;SDS011;73554;43.328;6.668;2024-02-26T02:30:23;37.58;;;6.00;;
77775;SDS011;73554;43.328;6.668;2024-02-26T02:32:49;36.90;;;6.60;;
77775;SDS011;73554;43.328;6.668;2024-02-26T02:35:15;36.40;;;5.20;;
77775;SDS011;73554;43.328;6.668;2024-02-26T02:37:41;35.03;;;4.85;;
77775;SDS011;73554;43.328;6.668;2024-02-26T02:40:06;38.45;;;5.93;;
77775;SDS011;73554;43.328;6.668;2024-02-26T02:42:32;31.38;;;4.68;;
77775;SDS011;73554;43.328;6.668;2024-02-26T02:44:57;39.63;;;6.63;;
77775;SDS011;73554;43.328;6.668;2024-02-26T02:47:22;36.57;;;5.70;;
77775;SDS011;73554;43.328;6.668;2024-02-26T02:49:48;47.93;;;6.40;;
77775;SDS011;73554;43.328;6.668;2024-02-26T02:52:13;31.75;;;5.72;;
77775;SDS011;73554;43.328;6.668;2024-02-26T02:54:38;38.00;;;5.23;;
77775;SDS011;73554;43.328;6.668;2024-02-26T02:57:06;25.35;;;3.53;;
77775;SDS011;73554;43.328;6.668;2024-02-26T02:59:32;29.75;;;5.32;;
77775;SDS011;73554;43.328;6.668;2024-02-26T03:01:57;34.07;;;4.10;;
77775;SDS011;73554;43.328;6.668;2024-02-26T03:04:22;34.70;;;5.13;;
77775;SDS011;73554;43.328;6.668;2024-02-26T03:06:48;33.47;;;5.90;;
77775;SDS011;73554;43.328;6.668;2024-02-26T03:09:13;25.53;;;3.97;;
77775;SDS011;73554;43.328;6.668;2024-02-26T03:11:38;31.93;;;5.03;;
77775;SDS011;73554;43.328;6.668;2024-02-26T03:14:04;44.00;;;5.63;;
77775;SDS011;73554;43.328;6.668;2024-02-26T03:16:30;36.03;;;5.05;;
77775;SDS011;73554;43.328;6.668;2024-02-26T03:18:55;30.17;;;5.40;;
77775;SDS011;73554;43.328;6.668;2024-02-26T03:21:20;28.63;;;4.77;;
77775;SDS011;73554;43.328;6.668;2024-02-26T03:23:46;36.80;;;5.47;;
77775;SDS011;73554;43.328;6.668;2024-02-26T03:26:11;37.90;;;6.00;;
77775;SDS011;73554;43.328;6.668;2024-02-26T03:28:39;38.33;;;5.85;;
77775;SDS011;73554;43.328;6.668;2024-02-26T03:31:04;59.23;;;10.20;;
77775;SDS011;73554;43.328;6.668;2024-02-26T03:33:30;31.07;;;5.40;;
77775;SDS011;73554;43.328;6.668;2024-02-26T03:35:55;37.83;;;4.73;;
77775;SDS011;73554;43.328;6.668;2024-02-26T03:38:20;72.20;;;8.40;;
77775;SDS011;73554;43.328;6.668;2024-02-26T03:40:45;48.43;;;5.87;;
77775;SDS011;73554;43.328;6.668;2024-02-26T03:43:11;53.20;;;6.93;;
77775;SDS011;73554;43.328;6.668;2024-02-26T03:48:03;33.53;;;4.28;;
77775;SDS011;73554;43.328;6.668;2024-02-26T03:50:31;45.92;;;7.60;;
77775;SDS011;73554;43.328;6.668;2024-02-26T03:52:57;53.50;;;7.63;;
77775;SDS011;73554;43.328;6.668;2024-02-26T03:55:22;61.90;;;7.20;;
77775;SDS011;73554;43.328;6.668;2024-02-26T03:57:50;62.15;;;9.57;;
77775;SDS011;73554;43.328;6.668;2024-02-26T04:00:15;35.05;;;6.65;;
77775;SDS011;73554;43.328;6.668;2024-02-26T04:02:41;38.28;;;6.03;;
77775;SDS011;73554;43.328;6.668;2024-02-26T04:05:08;58.27;;;9.37;;
77775;SDS011;73554;43.328;6.668;2024-02-26T04:07:34;55.85;;;8.52;;
77775;SDS011;73554;43.328;6.668;2024-02-26T04:10:00;45.20;;;5.87;;
77775;SDS011;73554;43.328;6.668;2024-02-26T04:12:25;34.33;;;4.70;;
77775;SDS011;73554;43.328;6.668;2024-02-26T04:14:50;45.67;;;6.90;;
77775;SDS011;73554;43.328;6.668;2024-02-26T04:17:16;40.77;;;6.60;;
77775;SDS011;73554;43.328;6.668;2024-02-26T04:19:41;45.67;;;6.70;;
77775;SDS011;73554;43.328;6.668;2024-02-26T04:22:06;40.43;;;5.93;;
77775;SDS011;73554;43.328;6.668;2024-02-26T04:24:31;32.00;;;5.53;;
77775;SDS011;73554;43.328;6.668;2024-02-26T04:26:57;40.07;;;6.03;;
77775;SDS011;73554;43.328;6.668;2024-02-26T04:29:22;46.67;;;7.13;;
77775;SDS011;73554;43.328;6.668;2024-02-26T04:31:47;60.10;;;7.17;;
77775;SDS011;73554;43.328;6.668;2024-02-26T04:34:13;40.03;;;5.37;;
77775;SDS011;73554;43.328;6.668;2024-02-26T04:36:38;41.22;;;6.53;;
77775;SDS011;73554;43.328;6.668;2024-02-26T04:39:05;43.50;;;6.87;;
77775;SDS011;73554;43.328;6.668;2024-02-26T04:41:31;40.50;;;6.30;;
77775;SDS011;73554;43.328;6.668;2024-02-26T04:43:57;34.07;;;5.67;;
77775;SDS011;73554;43.328;6.668;2024-02-26T04:46:22;49.20;;;7.77;;
77775;SDS011;73554;43.328;6.668;2024-02-26T04:48:47;43.70;;;6.43;;
77775;SDS011;73554;43.328;6.668;2024-02-26T04:51:12;31.58;;;6.63;;
77775;SDS011;73554;43.328;6.668;2024-02-26T04:53:38;42.87;;;6.07;;
77775;SDS011;73554;43.328;6.668;2024-02-26T04:56:06;40.78;;;6.60;;
77775;SDS011;73554;43.328;6.668;2024-02-26T04:58:31;38.25;;;6.18;;
77775;SDS011;73554;43.328;6.668;2024-02-26T05:00:56;46.07;;;5.53;;
77775;SDS011;73554;43.328;6.668;2024-02-26T05:03:21;50.03;;;8.83;;
77775;SDS011;73554;43.328;6.668;2024-02-26T05:05:49;48.60;;;8.27;;
77775;SDS011;73554;43.328;6.668;2024-02-26T05:08:14;59.60;;;10.50;;
77775;SDS011;73554;43.328;6.668;2024-02-26T05:10:40;37.40;;;6.97;;
77775;SDS011;73554;43.328;6.668;2024-02-26T05:13:09;40.42;;;7.40;;
77775;SDS011;73554;43.328;6.668;2024-02-26T05:15:34;49.35;;;7.13;;
77775;SDS011;73554;43.328;6.668;2024-02-26T05:18:00;53.78;;;6.80;;
77775;SDS011;73554;43.328;6.668;2024-02-26T05:20:28;41.75;;;6.90;;
77775;SDS011;73554;43.328;6.668;2024-02-26T05:22:53;34.53;;;6.07;;
77775;SDS011;73554;43.328;6.668;2024-02-26T05:25:18;47.13;;;8.33;;
77775;SDS011;73554;43.328;6.668;2024-02-26T05:27:44;33.83;;;4.97;;
77775;SDS011;73554;43.328;6.668;2024-02-26T05:30:10;24.48;;;3.53;;
77775;SDS011;73554;43.328;6.668;2024-02-26T05:32:35;41.00;;;6.32;;
77775;SDS011;73554;43.328;6.668;2024-02-26T05:35:00;19.43;;;2.77;;
77775;SDS011;73554;43.328;6.668;2024-02-26T05:37:28;23.63;;;5.55;;
77775;SDS011;73554;43.328;6.668;2024-02-26T05:39:53;19.40;;;3.60;;
77775;SDS011;73554;43.328;6.668;2024-02-26T05:42:18;3.23;;;1.00;;
77775;SDS011;73554;43.328;6.668;2024-02-26T05:44:43;2.43;;;0.57;;
77775;SDS011;73554;43.328;6.668;2024-02-26T05:47:09;0.90;;;0.50;;
77775;SDS011;73554;43.328;6.668;2024-02-26T05:49:34;5.30;;;1.70;;
77775;SDS011;73554;43.328;6.668;2024-02-26T05:51:59;3.80;;;0.50;;
77775;SDS011;73554;43.328;6.668;2024-02-26T05:54:24;0.53;;;0.40;;
77775;SDS011;73554;43.328;6.668;2024-02-26T05:56:50;1.40;;;0.40;;
77775;SDS011;73554;43.328;6.668;2024-02-26T05:59:15;2.33;;;0.47;;
77775;SDS011;73554;43.328;6.668;2024-02-26T06:01:41;3.08;;;0.50;;
77775;SDS011;73554;43.328;6.668;2024-02-26T06:04:06;1.48;;;0.93;;
77775;SDS011;73554;43.328;6.668;2024-02-26T06:06:31;2.33;;;0.47;;
77775;SDS011;73554;43.328;6.668;2024-02-26T06:08:57;0.95;;;0.40;;
77775;SDS011;73554;43.328;6.668;2024-02-26T06:11:22;1.65;;;0.98;;
77775;SDS011;73554;43.328;6.668;2024-02-26T06:13:47;4.38;;;1.00;;
77775;SDS011;73554;43.328;6.668;2024-02-26T06:16:13;3.03;;;0.70;;
77775;SDS011;73554;43.328;6.668;2024-02-26T06:18:38;1.08;;;0.38;;
77775;SDS011;73554;43.328;6.668;2024-02-26T06:21:09;3.28;;;0.60;;
77775;SDS011;73554;43.328;6.668;2024-02-26T06:23:35;2.25;;;0.57;;
77775;SDS011;73554;43.328;6.668;2024-02-26T06:26:00;4.07;;;1.03;;
77775;SDS011;73554;43.328;6.668;2024-02-26T06:28:26;19.60;;;2.50;;
77775;SDS011;73554;43.328;6.668;2024-02-26T06:30:51;14.93;;;2.83;;
77775;SDS011;73554;43.328;6.668;2024-02-26T06:33:17;9.80;;;2.05;;
77775;SDS011;73554;43.328;6.668;2024-02-26T06:35:42;14.00;;;2.40;;
77775;SDS011;73554;43.328;6.668;2024-02-26T06:38:09;10.57;;;1.67;;
77775;SDS011;73554;43.328;6.668;2024-02-26T06:40:35;13.00;;;1.80;;
77775;SDS011;73554;43.328;6.668;2024-02-26T06:43:00;16.90;;;3.33;;
77775;SDS011;73554;43.328;6.668;2024-02-26T06:45:25;12.17;;;1.97;;
77775;SDS011;73554;43.328;6.668;2024-02-26T06:47:50;9.50;;;1.80;;
77775;SDS011;73554;43.328;6.668;2024-02-26T06:50:16;15.37;;;2.53;;
77775;SDS011;73554;43.328;6.668;2024-02-26T06:52:43;14.33;;;3.20;;
77775;SDS011;73554;43.328;6.668;2024-02-26T06:57:33;14.07;;;1.60;;
77775;SDS011;73554;43.328;6.668;2024-02-26T06:59:58;13.23;;;3.33;;
77775;SDS011;73554;43.328;6.668;2024-02-26T07:02:24;13.18;;;2.10;;
77775;SDS011;73554;43.328;6.668;2024-02-26T07:04:49;9.30;;;1.90;;
77775;SDS011;73554;43.328;6.668;2024-02-26T07:07:14;19.10;;;2.93;;
77775;SDS011;73554;43.328;6.668;2024-02-26T07:09:41;9.23;;;1.73;;
77775;SDS011;73554;43.328;6.668;2024-02-26T07:12:06;16.92;;;2.63;;
77775;SDS011;73554;43.328;6.668;2024-02-26T07:14:32;17.20;;;2.00;;
77775;SDS011;73554;43.328;6.668;2024-02-26T07:16:57;13.25;;;2.55;;
77775;SDS011;73554;43.328;6.668;2024-02-26T07:19:23;14.50;;;3.05;;
77775;SDS011;73554;43.328;6.668;2024-02-26T07:21:48;15.57;;;3.87;;
77775;SDS011;73554;43.328;6.668;2024-02-26T07:24:13;9.73;;;2.40;;
77775;SDS011;73554;43.328;6.668;2024-02-26T07:26:39;17.50;;;2.78;;
77775;SDS011;73554;43.328;6.668;2024-02-26T07:29:05;12.73;;;3.10;;
77775;SDS011;73554;43.328;6.668;2024-02-26T07:31:30;11.10;;;1.75;;
77775;SDS011;73554;43.328;6.668;2024-02-26T07:33:55;2.23;;;0.87;;
77775;SDS011;73554;43.328;6.668;2024-02-26T07:36:21;6.23;;;1.43;;
77775;SDS011;73554;43.328;6.668;2024-02-26T07:38:46;4.50;;;0.83;;
77775;SDS011;73554;43.328;6.668;2024-02-26T07:41:11;3.53;;;0.70;;
77775;SDS011;73554;43.328;6.668;2024-02-26T07:43:37;3.70;;;0.95;;
77775;SDS011;73554;43.328;6.668;2024-02-26T07:46:02;4.37;;;0.80;;
77775;SDS011;73554;43.328;6.668;2024-02-26T07:48:27;3.33;;;1.13;;
77775;SDS011;73554;43.328;6.668;2024-02-26T07:50:53;4.22;;;1.15;;
77775;SDS011;73554;43.328;6.668;2024-02-26T07:53:18;3.77;;;1.23;;
77775;SDS011;73554;43.328;6.668;2024-02-26T07:55:43;5.03;;;1.43;;
77775;SDS011;73554;43.328;6.668;2024-02-26T07:58:08;0.10;;;0.10;;
77775;SDS011;73554;43.328;6.668;2024-02-26T08:00:34;1.57;;;0.47;;
77775;SDS011;73554;43.328;6.668;2024-02-26T08:02:59;4.07;;;0.70;;
77775;SDS011;73554;43.328;6.668;2024-02-26T08:05:25;2.63;;;0.70;;
77775;SDS011;73554;43.328;6.668;2024-02-26T08:07:51;3.53;;;0.90;;
77775;SDS011;73554;43.328;6.668;2024-02-26T08:10:16;1.43;;;0.53;;
77775;SDS011;73554;43.328;6.668;2024-02-26T08:12:41;2.20;;;0.65;;
77775;SDS011;73554;43.328;6.668;2024-02-26T08:15:07;2.83;;;0.73;;
77775;SDS011;73554;43.328;6.668;2024-02-26T08:17:33;2.97;;;0.77;;
77775;SDS011;73554;43.328;6.668;2024-02-26T08:19:59;1.97;;;0.77;;
77775;SDS011;73554;43.328;6.668;2024-02-26T08:22:24;2.72;;;0.43;;
77775;SDS011;73554;43.328;6.668;2024-02-26T08:24:49;0.30;;;0.20;;
77775;SDS011;73554;43.328;6.668;2024-02-26T08:27:14;2.00;;;0.63;;
77775;SDS011;73554;43.328;6.668;2024-02-26T08:29:40;1.02;;;0.30;;
77775;SDS011;73554;43.328;6.668;2024-02-26T08:32:05;0.07;;;0.07;;
77775;SDS011;73554;43.328;6.668;2024-02-26T08:34:32;0.50;;;0.25;;
77775;SDS011;73554;43.328;6.668;2024-02-26T08:36:57;0.80;;;0.20;;
77775;SDS011;73554;43.328;6.668;2024-02-26T08:39:22;0.20;;;0.20;;
77775;SDS011;73554;43.328;6.668;2024-02-26T08:41:47;1.17;;;0.30;;
77775;SDS011;73554;43.328;6.668;2024-02-26T08:44:13;3.40;;;0.50;;
77775;SDS011;73554;43.328;6.668;2024-02-26T08:46:38;1.50;;;0.40;;
77775;SDS011;73554;43.328;6.668;2024-02-26T08:49:03;0.83;;;0.30;;
77775;SDS011;73554;43.328;6.668;2024-02-26T08:51:29;0.25;;;0.25;;
77775;SDS011;73554;43.328;6.668;2024-02-26T08:53:54;1.53;;;0.50;;
77775;SDS011;73554;43.328;6.668;2024-02-26T16:59:39;18.45;;;3.33;;
77775;SDS011;73554;43.328;6.668;2024-02-26T17:02:07;9.45;;;1.75;;
77775;SDS011;73554;43.328;6.668;2024-02-26T17:04:36;18.65;;;3.08;;
77775;SDS011;73554;43.328;6.668;2024-02-26T17:07:02;12.40;;;1.83;;
77775;SDS011;73554;43.328;6.668;2024-02-26T17:09:29;16.48;;;2.40;;
77775;SDS011;73554;43.328;6.668;2024-02-26T17:11:54;10.33;;;2.97;;
77775;SDS011;73554;43.328;6.668;2024-02-26T17:14:21;15.23;;;3.45;;
77775;SDS011;73554;43.328;6.668;2024-02-26T17:16:49;14.55;;;2.45;;
77775;SDS011;73554;43.328;6.668;2024-02-26T17:19:18;18.02;;;2.38;;
77775;SDS011;73554;43.328;6.668;2024-02-26T17:21:43;14.45;;;1.67;;
77775;SDS011;73554;43.328;6.668;2024-02-26T17:24:08;27.33;;;6.17;;
77775;SDS011;73554;43.328;6.668;2024-02-26T17:26:36;17.58;;;2.17;;
77775;SDS011;73554;43.328;6.668;2024-02-26T17:29:04;27.23;;;3.40;;
77775;SDS011;73554;43.328;6.668;2024-02-26T17:31:33;19.10;;;3.80;;
77775;SDS011;73554;43.328;6.668;2024-02-26T17:34:08;21.70;;;3.13;;
77775;SDS011;73554;43.328;6.668;2024-02-26T17:36:36;31.05;;;3.35;;
77775;SDS011;73554;43.328;6.668;2024-02-26T17:39:07;32.67;;;4.82;;
77775;SDS011;73554;43.328;6.668;2024-02-26T17:41:33;12.48;;;1.98;;
77775;SDS011;73554;43.328;6.668;2024-02-26T17:44:00;26.83;;;3.22;;
77775;SDS011;73554;43.328;6.668;2024-02-26T17:46:26;12.32;;;3.25;;
77775;SDS011;73554;43.328;6.668;2024-02-26T17:48:55;13.65;;;2.28;;
77775;SDS011;73554;43.328;6.668;2024-02-26T17:51:20;24.02;;;4.00;;
77775;SDS011;73554;43.328;6.668;2024-02-26T17:53:51;26.33;;;4.35;;
77775;SDS011;73554;43.328;6.668;2024-02-26T17:56:19;20.63;;;3.78;;
77775;SDS011;73554;43.328;6.668;2024-02-26T17:58:47;47.28;;;8.07;;
77775;SDS011;73554;43.328;6.668;2024-02-26T18:01:14;19.05;;;2.65;;
77775;SDS011;73554;43.328;6.668;2024-02-26T18:03:40;21.03;;;3.53;;
77775;SDS011;73554;43.328;6.668;2024-02-26T18:06:05;15.23;;;3.03;;
77775;SDS011;73554;43.328;6.668;2024-02-26T18:08:33;21.85;;;4.82;;
77775;SDS011;73554;43.328;6.668;2024-02-26T18:10:59;11.43;;;2.03;;
77775;SDS011;73554;43.328;6.668;2024-02-26T18:13:27;6.63;;;1.70;;
77775;SDS011;73554;43.328;6.668;2024-02-26T18:15:52;7.77;;;2.37;;
77775;SDS011;73554;43.328;6.668;2024-02-26T18:18:25;8.25;;;2.88;;
77775;SDS011;73554;43.328;6.668;2024-02-26T18:20:57;6.30;;;2.00;;
77775;SDS011;73554;43.328;6.668;2024-02-26T18:23:26;8.65;;;3.42;;
77775;SDS011;73554;43.328;6.668;2024-02-26T18:25:51;7.33;;;3.57;;
77775;SDS011;73554;43.328;6.668;2024-02-26T18:28:16;8.90;;;3.20;;
77775;SDS011;73554;43.328;6.668;2024-02-26T18:30:49;10.10;;;2.88;;
77775;SDS011;73554;43.328;6.668;2024-02-26T18:33:17;5.57;;;1.83;;
77775;SDS011;73554;43.328;6.668;2024-02-26T18:35:45;6.63;;;2.10;;
77775;SDS011;73554;43.328;6.668;2024-02-26T18:38:13;4.68;;;1.73;;
77775;SDS011;73554;43.328;6.668;2024-02-26T18:40:42;5.20;;;1.65;;
77775;SDS011;73554;43.328;6.668;2024-02-26T18:43:07;6.45;;;1.67;;
77775;SDS011;73554;43.328;6.668;2024-02-26T18:45:32;4.17;;;1.63;;
77775;SDS011;73554;43.328;6.668;2024-02-26T18:48:03;11.15;;;2.00;;
77775;SDS011;73554;43.328;6.668;2024-02-26T18:50:30;4.20;;;1.70;;
77775;SDS011;73554;43.328;6.668;2024-02-26T18:52:57;3.85;;;1.33;;
77775;SDS011;73554;43.328;6.668;2024-02-26T18:55:27;4.78;;;1.33;;
77775;SDS011;73554;43.328;6.668;2024-02-26T18:57:52;4.38;;;1.10;;
77775;SDS011;73554;43.328;6.668;2024-02-26T19:00:17;6.77;;;1.60;;
77775;SDS011;73554;43.328;6.668;2024-02-26T19:02:48;7.85;;;1.90;;
77775;SDS011;73554;43.328;6.668;2024-02-26T19:05:14;7.28;;;2.42;;
77775;SDS011;73554;43.328;6.668;2024-02-26T19:07:41;9.63;;;2.90;;
77775;SDS011;73554;43.328;6.668;2024-02-26T19:10:10;3.85;;;1.80;;
77775;SDS011;73554;43.328;6.668;2024-02-26T19:12:35;6.50;;;2.00;;
77775;SDS011;73554;43.328;6.668;2024-02-26T19:15:00;8.35;;;2.05;;
77775;SDS011;73554;43.328;6.668;2024-02-26T19:17:26;6.20;;;1.70;;
77775;SDS011;73554;43.328;6.668;2024-02-26T19:19:51;7.97;;;1.90;;
77775;SDS011;73554;43.328;6.668;2024-02-26T19:22:16;6.40;;;1.90;;
77775;SDS011;73554;43.328;6.668;2024-02-26T19:24:41;5.33;;;1.80;;
77775;SDS011;73554;43.328;6.668;2024-02-26T19:27:10;5.38;;;1.73;;
77775;SDS011;73554;43.328;6.668;2024-02-26T19:29:35;5.37;;;1.83;;
77775;SDS011;73554;43.328;6.668;2024-02-26T19:32:03;3.70;;;1.60;;
77775;SDS011;73554;43.328;6.668;2024-02-26T19:34:29;4.57;;;1.67;;
77775;SDS011;73554;43.328;6.668;2024-02-26T19:36:54;5.45;;;1.77;;
77775;SDS011;73554;43.328;6.668;2024-02-26T19:39:22;6.80;;;2.30;;
77775;SDS011;73554;43.328;6.668;2024-02-26T19:41:49;6.20;;;1.98;;
77775;SDS011;73554;43.328;6.668;2024-02-26T19:44:15;6.23;;;2.13;;
77775;SDS011;73554;43.328;6.668;2024-02-26T19:46:42;5.88;;;2.60;;
77775;SDS011;73554;43.328;6.668;2024-02-26T19:49:08;4.83;;;1.93;;
77775;SDS011;73554;43.328;6.668;2024-02-26T19:51:35;5.67;;;2.10;;
77775;SDS011;73554;43.328;6.668;2024-02-26T19:54:04;5.47;;;2.38;;
77775;SDS011;73554;43.328;6.668;2024-02-26T19:56:30;6.40;;;2.08;;
77775;SDS011;73554;43.328;6.668;2024-02-26T19:58:58;5.57;;;2.15;;
77775;SDS011;73554;43.328;6.668;2024-02-26T20:01:26;4.72;;;2.17;;
77775;SDS011;73554;43.328;6.668;2024-02-26T20:03:53;5.25;;;1.95;;
77775;SDS011;73554;43.328;6.668;2024-02-26T20:06:19;5.13;;;1.83;;
77775;SDS011;73554;43.328;6.668;2024-02-26T20:08:52;4.15;;;1.60;;
77775;SDS011;73554;43.328;6.668;2024-02-26T20:11:23;5.68;;;1.83;;
77775;SDS011;73554;43.328;6.668;2024-02-26T20:13:56;4.80;;;2.15;;
77775;SDS011;73554;43.328;6.668;2024-02-26T20:16:24;4.57;;;1.70;;
77775;SDS011;73554;43.328;6.668;2024-02-26T20:18:49;5.40;;;2.30;;
77775;SDS011;73554;43.328;6.668;2024-02-26T20:21:17;7.25;;;2.58;;
77775;SDS011;73554;43.328;6.668;2024-02-26T20:23:44;7.55;;;3.42;;
77775;SDS011;73554;43.328;6.668;2024-02-26T20:26:12;5.65;;;2.00;;
77775;SDS011;73554;43.328;6.668;2024-02-26T20:28:40;5.30;;;2.13;;
77775;SDS011;73554;43.328;6.668;2024-02-26T20:31:08;4.82;;;1.70;;
77775;SDS011;73554;43.328;6.668;2024-02-26T20:33:35;5.35;;;1.73;;
77775;SDS011;73554;43.328;6.668;2024-02-26T20:36:05;3.85;;;1.50;;
77775;SDS011;73554;43.328;6.668;2024-02-26T20:38:30;5.20;;;1.70;;
77775;SDS011;73554;43.328;6.668;2024-02-26T20:40:56;3.97;;;1.87;;
77775;SDS011;73554;43.328;6.668;2024-02-26T20:43:26;7.00;;;2.00;;
77775;SDS011;73554;43.328;6.668;2024-02-26T20:45:52;4.07;;;1.30;;
77775;SDS011;73554;43.328;6.668;2024-02-26T20:48:17;5.20;;;1.70;;
77775;SDS011;73554;43.328;6.668;2024-02-26T20:50:46;5.65;;;1.63;;
77775;SDS011;73554;43.328;6.668;2024-02-26T20:53:11;4.65;;;1.63;;
77775;SDS011;73554;43.328;6.668;2024-02-26T20:55:37;3.60;;;1.40;;
77775;SDS011;73554;43.328;6.668;2024-02-26T20:58:08;4.43;;;1.55;;
77775;SDS011;73554;43.328;6.668;2024-02-26T21:00:33;4.47;;;1.65;;
77775;SDS011;73554;43.328;6.668;2024-02-26T21:02:59;3.83;;;1.50;;
77775;SDS011;73554;43.328;6.668;2024-02-26T21:05:27;4.25;;;1.25;;
77775;SDS011;73554;43.328;6.668;2024-02-26T21:07:52;3.43;;;1.67;;
77775;SDS011;73554;43.328;6.668;2024-02-26T21:10:23;3.95;;;1.60;;
77775;SDS011;73554;43.328;6.668;2024-02-26T21:12:54;3.97;;;1.90;;
77775;SDS011;73554;43.328;6.668;2024-02-26T21:15:22;3.95;;;1.40;;
77775;SDS011;73554;43.328;6.668;2024-02-26T21:17:50;4.53;;;1.45;;
77775;SDS011;73554;43.328;6.668;2024-02-26T21:20:15;5.28;;;1.40;;
77775;SDS011;73554;43.328;6.668;2024-02-26T21:22:44;3.65;;;1.40;;
77775;SDS011;73554;43.328;6.668;2024-02-26T21:25:10;2.92;;;1.30;;
77775;SDS011;73554;43.328;6.668;2024-02-26T21:27:35;4.23;;;1.40;;
77775;SDS011;73554;43.328;6.668;2024-02-26T21:30:01;3.00;;;1.27;;
77775;SDS011;73554;43.328;6.668;2024-02-26T21:32:26;4.22;;;1.30;;
77775;SDS011;73554;43.328;6.668;2024-02-26T21:34:51;4.20;;;1.20;;
77775;SDS011;73554;43.328;6.668;2024-02-26T21:37:17;3.40;;;1.20;;
77775;SDS011;73554;43.328;6.668;2024-02-26T21:39:44;4.10;;;1.67;;
77775;SDS011;73554;43.328;6.668;2024-02-26T21:42:12;3.50;;;1.58;;
77775;SDS011;73554;43.328;6.668;2024-02-26T21:44:38;3.93;;;1.10;;
77775;SDS011;73554;43.328;6.668;2024-02-26T21:47:03;4.27;;;1.20;;
77775;SDS011;73554;43.328;6.668;2024-02-26T21:49:28;6.05;;;1.75;;
77775;SDS011;73554;43.328;6.668;2024-02-26T21:51:54;2.78;;;1.20;;
77775;SDS011;73554;43.328;6.668;2024-02-26T21:54:19;3.88;;;1.23;;
77775;SDS011;73554;43.328;6.668;2024-02-26T21:56:45;2.75;;;1.13;;
77775;SDS011;73554;43.328;6.668;2024-02-26T21:59:10;3.57;;;1.60;;
77775;SDS011;73554;43.328;6.668;2024-02-26T22:01:35;3.23;;;1.40;;
77775;SDS011;73554;43.328;6.668;2024-02-26T22:04:01;3.72;;;1.90;;
77775;SDS011;73554;43.328;6.668;2024-02-26T22:06:27;3.08;;;1.20;;
77775;SDS011;73554;43.328;6.668;2024-02-26T22:08:53;2.80;;;1.15;;
77775;SDS011;73554;43.328;6.668;2024-02-26T22:11:19;3.30;;;1.30;;
77775;SDS011;73554;43.328;6.668;2024-02-26T22:13:44;4.03;;;1.63;;
77775;SDS011;73554;43.328;6.668;2024-02-26T22:16:09;4.77;;;2.43;;
77775;SDS011;73554;43.328;6.668;2024-02-26T22:18:34;3.63;;;1.70;;
77775;SDS011;73554;43.328;6.668;2024-02-26T22:21:00;3.30;;;1.20;;
77775;SDS011;73554;43.328;6.668;2024-02-26T22:23:25;4.47;;;1.63;;
77775;SDS011;73554;43.328;6.668;2024-02-26T22:25:53;3.83;;;1.60;;
77775;SDS011;73554;43.328;6.668;2024-02-26T22:28:18;5.73;;;1.60;;
77775;SDS011;73554;43.328;6.668;2024-02-26T22:30:46;4.07;;;1.83;;
77775;SDS011;73554;43.328;6.668;2024-02-26T22:33:11;4.95;;;2.05;;
77775;SDS011;73554;43.328;6.668;2024-02-26T22:35:39;4.22;;;2.00;;
77775;SDS011;73554;43.328;6.668;2024-02-26T22:38:04;4.40;;;1.85;;
77775;SDS011;73554;43.328;6.668;2024-02-26T22:40:33;3.47;;;1.58;;
77775;SDS011;73554;43.328;6.668;2024-02-26T22:42:58;5.82;;;2.58;;